Rechercher aéroport 
image banner adimage banner adimage banner ad
image banner ad

6CA3 - Catalina Air-Sea Terminal

Situé à San Pedro, United States

ICAO - 6CA3, IATA - SPQ

Données fournies par Airmate  

Information générale

Coordonnées: N33°44'55" W118°16'30"
Élévation : 5 feet MSL.
Variation magnétique : 14° East
Voir autres Aéroports à California

Données opérationnelles

Special qualification required
Heure actuelle UTC:
Heure actuelle locale:
Météo à : KTOA - Zamperini Field ( 9 km )
METAR: KTOA 020247Z 25012KT 10SM SKC 21/11 A2999
Voir NOTAMs / SUP AIP / TFR affectant cet aéroport [VIEW]
Fréquences de communication: [VIEW]

Pistes:

Coordonnées de l'aéroport

Adresse: San Pedro United States

Vue satellite de 6CA3